Time;durP1;ratioP1;P1;durP2;ratioP2;P2;SDS_P1;SDS_P2;PMS_P1;PMS_P2;Temp;Humidity;BMP_temperature;BMP_pressure;BME280_temperature;BME280_humidity;BME280_pressure;Samples;Min_cycle;Max_cycle;Signal;HPM_P1;HPM_P2
2023/10/28 00:00:48;;;;;;;2.00;1.23;;;;;;;9.61;100.00;153827.06;5025777;28;20482;-83
2023/10/28 00:03:15;;;;;;;1.27;1.00;;;;;;;9.59;100.00;153821.88;5028728;28;20529;-82
2023/10/28 00:05:42;;;;;;;1.20;0.80;;;;;;;9.56;100.00;153815.41;5025126;28;20847;-82
2023/10/28 00:08:08;;;;;;;1.20;0.80;;;;;;;9.55;100.00;153812.84;5012055;28;20464;-82
2023/10/28 00:10:36;;;;;;;1.50;1.03;;;;;;;9.55;100.00;153812.84;5026043;28;20495;-82
2023/10/28 00:13:04;;;;;;;1.40;0.97;;;;;;;9.58;100.00;153819.31;5010833;28;20447;-83
2023/10/28 00:15:31;;;;;;;1.70;0.80;;;;;;;9.57;100.00;153818.00;5016906;28;20482;-82
2023/10/28 00:17:57;;;;;;;1.67;0.70;;;;;;;9.58;100.00;153820.56;5031566;28;20459;-83
2023/10/28 00:20:24;;;;;;;1.60;0.70;;;;;;;9.56;100.00;153815.41;5012914;28;20517;-83
2023/10/28 00:22:53;;;;;;;0.90;0.50;;;;;;;9.56;100.00;153815.41;5010761;28;20475;-82
2023/10/28 00:25:22;;;;;;;1.87;0.60;;;;;;;9.57;100.00;153816.69;5008866;28;20508;-83
2023/10/28 00:27:50;;;;;;;1.10;0.70;;;;;;;9.56;100.00;153815.41;5024822;28;20459;-83
2023/10/28 00:30:17;;;;;;;1.90;0.70;;;;;;;9.58;100.00;153820.56;5021283;28;20467;-83
2023/10/28 00:32:43;;;;;;;1.47;0.60;;;;;;;9.56;100.00;153814.09;5009807;28;20474;-82
2023/10/28 00:35:11;;;;;;;1.27;0.50;;;;;;;9.55;100.00;153812.84;4992436;28;20958;-82
2023/10/28 00:37:38;;;;;;;1.10;0.50;;;;;;;9.54;100.00;153810.25;5010057;28;20211;-83
2023/10/28 00:40:06;;;;;;;0.97;0.70;;;;;;;9.51;100.00;153802.47;5008526;28;20525;-83
2023/10/28 00:42:35;;;;;;;1.40;1.10;;;;;;;9.52;100.00;153805.06;5027324;28;20670;-83
2023/10/28 00:45:03;;;;;;;1.27;0.67;;;;;;;9.46;100.00;153789.53;5026740;28;21017;-82
2023/10/28 00:47:30;;;;;;;1.23;0.40;;;;;;;9.46;100.00;153788.22;5025844;28;20473;-82
2023/10/28 00:49:58;;;;;;;1.60;0.47;;;;;;;9.45;100.00;153786.94;4993363;28;20481;-83
2023/10/28 00:52:25;;;;;;;1.23;0.47;;;;;;;9.43;100.00;153780.47;5007179;28;20460;-83
2023/10/28 00:54:54;;;;;;;0.97;0.53;;;;;;;9.39;100.00;153771.44;5022665;28;20471;-83
2023/10/28 00:57:21;;;;;;;2.50;0.60;;;;;;;9.38;100.00;153767.53;5030620;28;20834;-83
2023/10/28 00:59:48;;;;;;;1.30;0.70;;;;;;;9.34;100.00;153757.22;5010295;28;20474;-84
2023/10/28 01:02:17;;;;;;;2.07;0.80;;;;;;;9.33;100.00;153755.91;5009525;28;20587;-83
2023/10/28 01:04:44;;;;;;;1.20;0.60;;;;;;;9.32;100.00;153753.31;5024896;28;20463;-81
2023/10/28 01:07:11;;;;;;;1.57;0.90;;;;;;;9.31;100.00;153750.75;5008362;28;20530;-82
2023/10/28 01:09:45;;;;;;;1.20;0.70;;;;;;;9.32;100.00;153753.31;5024643;28;20472;-82
2023/10/28 01:12:13;;;;;;;1.60;0.90;;;;;;;9.29;100.00;153745.59;5010974;28;20558;-83
2023/10/28 01:14:40;;;;;;;2.50;0.60;;;;;;;9.28;100.00;153742.97;5000877;28;20484;-83
2023/10/28 01:17:07;;;;;;;1.80;0.63;;;;;;;9.27;100.00;153740.38;5027150;28;20471;-82
2023/10/28 01:19:35;;;;;;;1.33;0.87;;;;;;;9.25;100.00;153733.91;5001835;28;20507;-82
2023/10/28 01:22:03;;;;;;;1.23;0.60;;;;;;;9.25;100.00;153733.91;5021231;28;20479;-82
2023/10/28 01:24:32;;;;;;;1.60;0.60;;;;;;;9.27;100.00;153740.38;5027224;28;20536;-83
2023/10/28 01:26:59;;;;;;;1.40;0.70;;;;;;;9.26;100.00;153737.81;5027348;28;20439;-83
2023/10/28 01:29:26;;;;;;;1.10;0.60;;;;;;;9.25;100.00;153733.91;5020765;28;20467;-83
2023/10/28 01:31:53;;;;;;;2.63;0.50;;;;;;;9.26;100.00;153737.81;5009091;28;20973;-82
2023/10/28 01:34:21;;;;;;;1.53;0.73;;;;;;;9.26;100.00;153737.81;4994848;28;20463;-82
2023/10/28 01:36:48;;;;;;;3.40;1.30;;;;;;;9.29;100.00;153745.59;5007804;28;20437;-82
2023/10/28 01:39:16;;;;;;;1.97;0.60;;;;;;;9.26;100.00;153737.81;5025726;28;20540;-83
2023/10/28 01:41:43;;;;;;;4.50;0.93;;;;;;;9.27;100.00;153740.38;5005418;28;20470;-83
2023/10/28 01:44:11;;;;;;;2.13;0.80;;;;;;;9.26;100.00;153737.81;5008939;28;20559;-82
2023/10/28 01:46:38;;;;;;;1.60;0.83;;;;;;;9.27;100.00;153740.38;5008134;28;20451;-81
2023/10/28 01:49:05;;;;;;;1.53;1.00;;;;;;;9.28;100.00;153742.97;5010234;28;20467;-81
2023/10/28 01:51:31;;;;;;;1.47;0.60;;;;;;;9.26;100.00;153737.81;5030093;28;21024;-81
2023/10/28 01:53:58;;;;;;;2.13;0.70;;;;;;;9.25;100.00;153735.22;5014273;28;20455;-82
2023/10/28 01:56:28;;;;;;;1.90;0.90;;;;;;;9.26;100.00;153737.81;4992872;28;20827;-83
2023/10/28 01:58:55;;;;;;;1.60;1.20;;;;;;;9.28;100.00;153742.97;5008440;28;20460;-82
2023/10/28 02:01:23;;;;;;;1.50;0.70;;;;;;;9.27;100.00;153739.06;5012538;28;20481;-82
2023/10/28 02:03:50;;;;;;;2.00;0.87;;;;;;;9.27;100.00;153739.06;5012681;28;20604;-83
2023/10/28 02:06:17;;;;;;;1.33;0.80;;;;;;;9.22;100.00;153727.44;5023095;28;20451;-82
2023/10/28 02:08:43;;;;;;;4.00;0.80;;;;;;;9.24;100.00;153732.59;4993537;28;20455;-82
2023/10/28 02:11:11;;;;;;;1.37;0.80;;;;;;;9.24;100.00;153731.34;5020559;28;20452;-84
2023/10/28 02:13:39;;;;;;;1.70;0.60;;;;;;;9.22;100.00;153727.44;5008305;28;20464;-83
2023/10/28 02:16:07;;;;;;;2.87;0.70;;;;;;;9.22;100.00;153726.13;5011671;28;20486;-83
2023/10/28 02:18:33;;;;;;;2.60;0.80;;;;;;;9.21;100.00;153723.59;5009824;28;20570;-82
2023/10/28 02:21:00;;;;;;;2.40;0.90;;;;;;;9.19;100.00;153720.97;5030579;28;20580;-82
2023/10/28 02:23:27;;;;;;;2.20;0.73;;;;;;;9.19;100.00;153719.69;4999291;28;20468;-83
2023/10/28 02:25:54;;;;;;;2.23;0.97;;;;;;;9.19;100.00;153719.69;5013126;28;20946;-83
2023/10/28 02:28:21;;;;;;;1.30;0.70;;;;;;;9.19;100.00;153719.69;5027656;28;20491;-83
2023/10/28 02:30:49;;;;;;;1.10;0.57;;;;;;;9.17;100.00;153715.81;5031389;28;20526;-83
2023/10/28 02:33:15;;;;;;;1.23;0.73;;;;;;;9.17;100.00;153715.81;5028831;28;20448;-83
2023/10/28 02:35:43;;;;;;;1.30;0.90;;;;;;;9.18;100.00;153717.13;5008524;28;21092;-83
2023/10/28 02:38:10;;;;;;;1.43;1.10;;;;;;;9.18;100.00;153717.13;5022623;28;20822;-82
2023/10/28 02:40:37;;;;;;;2.50;0.90;;;;;;;9.16;100.00;153711.91;5030339;28;20546;-83
2023/10/28 02:43:04;;;;;;;1.20;0.80;;;;;;;9.15;100.00;153709.34;5031044;28;20483;-83
2023/10/28 02:45:30;;;;;;;1.87;0.60;;;;;;;9.14;100.00;153708.03;5041944;28;20456;-83
2023/10/28 02:47:58;;;;;;;2.70;1.20;;;;;;;9.10;100.00;153697.72;5042056;28;20471;-83
2023/10/28 02:50:24;;;;;;;3.50;0.87;;;;;;;9.09;100.00;153693.81;5023887;28;20798;-83
2023/10/28 02:52:51;;;;;;;1.97;1.00;;;;;;;9.10;100.00;153696.41;5033341;28;20471;-83
2023/10/28 02:55:19;;;;;;;1.50;0.97;;;;;;;9.09;100.00;153695.13;5007933;28;20483;-82
2023/10/28 02:57:45;;;;;;;2.03;1.13;;;;;;;9.08;100.00;153691.25;5029541;28;20485;-83
2023/10/28 03:00:13;;;;;;;2.13;1.10;;;;;;;9.06;100.00;153687.34;5012577;28;20551;-82
2023/10/28 03:02:39;;;;;;;1.63;1.00;;;;;;;9.05;100.00;153683.50;5030808;28;20467;-85
2023/10/28 03:05:08;;;;;;;7.30;1.10;;;;;;;9.05;100.00;153683.50;5008111;28;20465;-83
2023/10/28 03:07:34;;;;;;;5.00;1.10;;;;;;;9.05;100.00;153683.50;5027045;28;20901;-82
2023/10/28 03:10:01;;;;;;;2.07;1.47;;;;;;;9.06;100.00;153687.34;5006442;28;20469;-82
2023/10/28 03:12:27;;;;;;;2.00;1.10;;;;;;;9.08;100.00;153691.25;4994919;28;20857;-82
2023/10/28 03:14:54;;;;;;;2.50;1.07;;;;;;;9.08;100.00;153691.25;5011740;28;20581;-83
2023/10/28 03:17:20;;;;;;;4.40;1.37;;;;;;;9.09;100.00;153695.13;5012665;28;20811;-82
2023/10/28 03:19:48;;;;;;;2.30;0.97;;;;;;;9.10;100.00;153696.41;5013660;28;20542;-83
2023/10/28 03:22:16;;;;;;;1.50;1.03;;;;;;;9.07;100.00;153689.97;5021421;28;20472;-83
2023/10/28 03:24:42;;;;;;;1.93;1.17;;;;;;;9.07;100.00;153689.97;5026710;28;20456;-83
2023/10/28 03:27:09;;;;;;;2.10;1.10;;;;;;;9.06;100.00;153686.06;5011425;28;20445;-83
2023/10/28 03:29:35;;;;;;;1.93;1.13;;;;;;;9.05;100.00;153683.50;5038765;28;20505;-84
2023/10/28 03:32:02;;;;;;;2.27;1.27;;;;;;;9.04;100.00;153682.19;5026546;28;20460;-84
2023/10/28 03:34:28;;;;;;;3.40;1.70;;;;;;;9.06;100.00;153686.06;5016626;28;20464;-83
2023/10/28 03:36:55;;;;;;;2.87;1.10;;;;;;;9.07;100.00;153688.66;5034274;28;20787;-83
2023/10/28 03:39:23;;;;;;;4.63;1.53;;;;;;;9.05;100.00;153683.50;5046728;28;20846;-84
2023/10/28 03:41:50;;;;;;;1.60;1.10;;;;;;;9.03;100.00;153678.28;5049474;28;20441;-84
2023/10/28 03:44:17;;;;;;;2.97;1.20;;;;;;;9.02;100.00;153675.72;5048854;28;20485;-84
2023/10/28 03:46:44;;;;;;;2.20;1.30;;;;;;;9.03;100.00;153678.28;5032511;28;20462;-84
2023/10/28 03:49:10;;;;;;;1.53;1.03;;;;;;;9.04;100.00;153680.88;5029448;28;20450;-83
2023/10/28 03:51:38;;;;;;;3.10;1.30;;;;;;;9.05;100.00;153683.50;5031424;28;20869;-82
2023/10/28 03:54:05;;;;;;;3.30;0.90;;;;;;;9.06;100.00;153686.06;5030840;28;20500;-82
2023/10/28 03:56:33;;;;;;;1.57;1.07;;;;;;;9.08;100.00;153691.25;5011737;28;20455;-83
2023/10/28 03:59:00;;;;;;;3.30;1.23;;;;;;;9.09;100.00;153693.81;5062251;22;20503;-76
2023/10/28 04:01:27;;;;;;;3.10;1.00;;;;;;;9.10;100.00;153696.41;5038513;28;20462;-75
2023/10/28 04:03:55;;;;;;;2.20;1.10;;;;;;;9.10;100.00;153696.41;5005499;28;20472;-76
2023/10/28 04:06:21;;;;;;;2.10;1.13;;;;;;;9.13;100.00;153704.19;4999412;28;20448;-76
2023/10/28 04:08:48;;;;;;;2.80;1.27;;;;;;;9.14;100.00;153708.03;5008538;28;20494;-75
2023/10/28 04:11:14;;;;;;;2.93;1.70;;;;;;;9.14;100.00;153708.03;5015025;28;20455;-75
2023/10/28 04:13:42;;;;;;;2.67;1.30;;;;;;;9.13;100.00;153704.19;5008136;28;20456;-75
2023/10/28 04:16:09;;;;;;;3.67;1.20;;;;;;;9.11;100.00;153698.97;5016190;28;20883;-75
2023/10/28 04:18:35;;;;;;;3.00;1.10;;;;;;;9.10;100.00;153696.41;5007329;28;20566;-75
2023/10/28 04:21:02;;;;;;;1.40;0.70;;;;;;;9.08;100.00;153691.25;5024619;28;20440;-75
2023/10/28 04:23:29;;;;;;;2.53;1.13;;;;;;;9.09;100.00;153693.81;4990930;28;21026;-75
2023/10/28 04:25:56;;;;;;;2.10;1.40;;;;;;;9.07;100.00;153689.97;5011115;28;20501;-75
2023/10/28 04:28:23;;;;;;;2.73;0.90;;;;;;;9.07;100.00;153688.66;5026898;28;20532;-75
2023/10/28 04:30:56;;;;;;;3.30;1.43;;;;;;;9.07;100.00;153688.66;5008898;28;20471;-75
2023/10/28 04:33:24;;;;;;;3.17;1.17;;;;;;;9.06;100.00;153686.06;5018880;28;20591;-76
2023/10/28 04:35:52;;;;;;;2.13;0.90;;;;;;;9.06;100.00;153686.06;5027507;28;20448;-76
2023/10/28 04:38:18;;;;;;;2.03;0.80;;;;;;;9.06;100.00;153686.06;5009641;28;20984;-76
2023/10/28 04:40:45;;;;;;;1.33;0.80;;;;;;;9.05;100.00;153683.50;5017699;28;20512;-76
2023/10/28 04:43:12;;;;;;;1.50;0.80;;;;;;;9.03;100.00;153678.28;5026412;28;20552;-75
2023/10/28 04:45:42;;;;;;;1.60;0.80;;;;;;;9.00;100.00;153671.81;5009362;28;20443;-76
2023/10/28 04:48:10;;;;;;;1.70;0.93;;;;;;;8.99;100.00;153667.97;4990960;28;20979;-76
2023/10/28 04:50:37;;;;;;;1.70;1.00;;;;;;;9.00;100.00;153670.56;5020650;28;20460;-74
2023/10/28 04:53:03;;;;;;;4.30;1.30;;;;;;;8.98;100.00;153665.34;5009165;28;20978;-75
2023/10/28 04:55:30;;;;;;;2.27;1.40;;;;;;;8.97;100.00;153662.81;5028101;28;20444;-75
2023/10/28 04:57:56;;;;;;;1.90;0.80;;;;;;;8.94;100.00;153655.03;5019037;28;20939;-76
2023/10/28 05:00:23;;;;;;;2.10;0.80;;;;;;;8.94;100.00;153655.03;5027441;28;21204;-75
2023/10/28 05:02:50;;;;;;;4.63;1.20;;;;;;;8.95;100.00;153657.59;5028733;28;20614;-75
2023/10/28 05:05:18;;;;;;;1.77;0.80;;;;;;;8.94;100.00;153655.03;5025655;28;21005;-76
2023/10/28 05:07:44;;;;;;;5.10;0.80;;;;;;;8.93;100.00;153652.44;5015765;28;20763;-75
2023/10/28 05:10:11;;;;;;;2.53;1.00;;;;;;;8.90;100.00;153644.66;4995259;28;20447;-75
2023/10/28 05:12:39;;;;;;;1.13;0.67;;;;;;;8.87;100.00;153636.94;4997274;28;20953;-75
2023/10/28 05:15:08;;;;;;;2.23;1.33;;;;;;;8.86;100.00;153634.34;5017544;28;20456;-76
2023/10/28 05:17:35;;;;;;;1.50;0.80;;;;;;;8.86;100.00;153634.34;5014490;28;20488;-76
2023/10/28 05:20:01;;;;;;;3.03;1.10;;;;;;;8.84;100.00;153629.19;5017673;28;20459;-76
2023/10/28 05:22:29;;;;;;;1.40;1.07;;;;;;;8.82;100.00;153623.97;5003053;28;20452;-76
2023/10/28 05:24:56;;;;;;;2.10;0.90;;;;;;;8.78;100.00;153613.66;5000834;28;20452;-76
2023/10/28 05:27:23;;;;;;;2.00;0.70;;;;;;;8.75;100.00;153605.91;5018417;28;20471;-76
2023/10/28 05:29:49;;;;;;;2.07;0.80;;;;;;;8.71;100.00;153595.56;5001883;28;20455;-76
2023/10/28 05:32:16;;;;;;;1.53;1.07;;;;;;;8.72;100.00;153598.13;5018055;28;21586;-76
2023/10/28 05:34:42;;;;;;;2.50;0.90;;;;;;;8.71;100.00;153595.56;5015641;28;20462;-76
2023/10/28 05:37:09;;;;;;;4.10;1.07;;;;;;;8.68;100.00;153589.13;5001655;28;20480;-76
2023/10/28 05:39:40;;;;;;;3.13;1.13;;;;;;;8.68;100.00;153587.81;5019991;28;20456;-76
2023/10/28 05:42:07;;;;;;;1.73;1.00;;;;;;;8.66;100.00;153582.66;5018675;28;20455;-76
2023/10/28 05:44:35;;;;;;;3.97;1.50;;;;;;;8.64;100.00;153577.44;5020596;28;20525;-76
2023/10/28 05:47:01;;;;;;;2.30;0.90;;;;;;;8.64;100.00;153578.75;5000949;28;20849;-76
2023/10/28 05:49:28;;;;;;;3.33;1.30;;;;;;;8.62;100.00;153573.59;5019542;28;20455;-77
2023/10/28 05:51:56;;;;;;;1.53;1.00;;;;;;;8.61;100.00;153569.69;5000136;28;20460;-75
2023/10/28 05:54:22;;;;;;;2.33;1.10;;;;;;;8.58;100.00;153564.53;5006859;28;20815;-75
2023/10/28 05:56:50;;;;;;;3.10;1.60;;;;;;;8.57;100.00;153561.97;5002115;28;20467;-76
2023/10/28 05:59:17;;;;;;;2.07;0.90;;;;;;;8.60;100.00;153567.13;5027801;28;20488;-75
2023/10/28 06:01:44;;;;;;;1.57;1.40;;;;;;;8.61;100.00;153570.97;5020785;28;20456;-75
2023/10/28 06:04:10;;;;;;;1.90;1.07;;;;;;;8.64;100.00;153578.75;5011794;28;20495;-75
2023/10/28 06:06:37;;;;;;;1.80;1.17;;;;;;;8.66;100.00;153583.91;5018762;28;20820;-75
2023/10/28 06:09:04;;;;;;;3.77;1.20;;;;;;;8.66;100.00;153582.66;5018838;28;20764;-75
2023/10/28 06:11:31;;;;;;;1.37;1.07;;;;;;;8.64;100.00;153577.44;5016996;28;20527;-76
2023/10/28 06:13:59;;;;;;;1.30;1.10;;;;;;;8.69;100.00;153590.38;4999665;28;20558;-74
2023/10/28 06:16:28;;;;;;;2.80;1.00;;;;;;;8.74;100.00;153603.28;4998726;28;20882;-75
2023/10/28 06:18:55;;;;;;;1.53;1.00;;;;;;;8.75;100.00;153605.91;5001385;28;20938;-76
2023/10/28 06:21:23;;;;;;;3.23;1.13;;;;;;;8.78;100.00;153613.66;5016649;28;20451;-75
2023/10/28 06:23:49;;;;;;;3.00;1.27;;;;;;;8.79;100.00;153616.25;5001643;28;20557;-75
2023/10/28 06:26:16;;;;;;;4.10;1.40;;;;;;;8.76;100.00;153609.81;5018103;28;20452;-77
2023/10/28 06:28:44;;;;;;;1.63;1.00;;;;;;;8.80;100.00;153618.81;5000107;28;21006;-75
2023/10/28 06:31:14;;;;;;;1.33;0.90;;;;;;;8.80;100.00;153620.13;5001192;28;20445;-76
2023/10/28 06:33:40;;;;;;;2.73;1.17;;;;;;;8.84;100.00;153629.19;5016027;28;20838;-75
2023/10/28 06:36:09;;;;;;;4.93;1.37;;;;;;;8.92;100.00;153649.88;5002931;28;20456;-75
2023/10/28 06:38:35;;;;;;;3.23;0.93;;;;;;;8.95;100.00;153658.91;5000630;28;20490;-75
2023/10/28 06:41:02;;;;;;;3.60;1.10;;;;;;;8.96;100.00;153660.19;5001959;28;20467;-75
2023/10/28 06:43:28;;;;;;;1.40;1.10;;;;;;;8.95;100.00;153657.59;5017362;28;21061;-75
2023/10/28 06:45:55;;;;;;;2.07;1.00;;;;;;;8.96;100.00;153660.19;5016359;28;20451;-74
2023/10/28 06:48:23;;;;;;;1.97;1.20;;;;;;;8.97;100.00;153662.81;5018651;28;20470;-76
2023/10/28 06:50:50;;;;;;;2.17;1.00;;;;;;;8.96;100.00;153661.50;5017463;28;20962;-76
2023/10/28 06:53:16;;;;;;;1.90;0.90;;;;;;;8.98;100.00;153665.34;5018905;28;20935;-76
2023/10/28 06:55:43;;;;;;;1.87;1.23;;;;;;;9.00;100.00;153671.81;5015005;28;20456;-75
2023/10/28 06:58:10;;;;;;;3.00;1.47;;;;;;;9.02;100.00;153675.72;4998330;28;20481;-74
2023/10/28 07:00:37;;;;;;;2.23;1.10;;;;;;;9.03;100.00;153678.28;5016855;28;20448;-75
2023/10/28 07:03:03;;;;;;;1.60;1.13;;;;;;;9.03;100.00;153678.28;4998938;28;20801;-75
2023/10/28 07:05:31;;;;;;;1.93;1.00;;;;;;;9.05;100.00;153683.50;5016960;28;20456;-74
2023/10/28 07:07:58;;;;;;;2.10;1.07;;;;;;;9.16;100.00;153713.22;5013522;28;20461;-75
2023/10/28 07:10:25;;;;;;;2.20;1.07;;;;;;;9.33;100.00;153754.59;5017247;28;20444;-75
2023/10/28 07:12:52;;;;;;;1.60;1.23;;;;;;;9.60;100.00;153825.78;4999159;28;20862;-75
2023/10/28 07:15:19;;;;;;;2.57;1.43;;;;;;;9.80;100.00;153877.50;5011686;28;20448;-75
2023/10/28 07:17:46;;;;;;;4.07;1.10;;;;;;;9.84;100.00;153886.59;5015459;28;20606;-75
2023/10/28 07:20:12;;;;;;;2.17;0.90;;;;;;;9.89;100.00;153898.22;5019097;28;20463;-75
2023/10/28 07:22:41;;;;;;;2.20;1.50;;;;;;;9.97;100.00;153918.91;4999356;28;20463;-75
2023/10/28 07:25:09;;;;;;;2.30;1.20;;;;;;;10.13;100.00;153960.41;5014550;28;20681;-75
2023/10/28 07:27:36;;;;;;;3.27;1.30;;;;;;;10.52;100.00;154060.06;4996996;28;20492;-75
2023/10/28 07:30:03;;;;;;;2.90;1.37;;;;;;;11.16;100.00;154224.53;5018888;28;20921;-75
2023/10/28 07:32:30;;;;;;;2.00;1.20;;;;;;;11.51;100.00;154316.53;4997718;28;20835;-75
2023/10/28 07:34:57;;;;;;;2.50;0.90;;;;;;;12.12;100.00;154473.41;5018012;28;20954;-75
2023/10/28 07:37:24;;;;;;;1.53;1.03;;;;;;;11.96;100.00;154431.94;4997350;28;20456;-75
2023/10/28 07:39:52;;;;;;;1.87;1.03;;;;;;;11.63;100.00;154346.31;4996431;28;20542;-75
2023/10/28 07:42:19;;;;;;;2.07;1.13;;;;;;;11.30;100.00;154260.81;4997694;28;20463;-75
2023/10/28 07:44:45;;;;;;;1.00;0.67;;;;;;;11.00;100.00;154185.69;4986240;28;20484;-76
2023/10/28 07:47:12;;;;;;;2.60;1.00;;;;;;;10.86;100.00;154149.41;5015335;28;20448;-76
2023/10/28 07:49:38;;;;;;;1.50;1.00;;;;;;;10.80;100.00;154133.84;5001049;28;20832;-75
2023/10/28 07:52:07;;;;;;;2.33;0.87;;;;;;;10.78;100.00;154128.69;4997113;28;20873;-75
2023/10/28 07:54:33;;;;;;;2.97;1.23;;;;;;;10.71;100.00;154110.56;5015991;28;21212;-75
2023/10/28 07:57:02;;;;;;;3.90;1.30;;;;;;;10.68;100.00;154101.50;4996716;28;20544;-75
2023/10/28 07:59:30;;;;;;;1.97;0.97;;;;;;;10.71;100.00;154110.56;5018646;28;20968;-75
2023/10/28 08:01:58;;;;;;;1.90;1.20;;;;;;;10.77;100.00;154124.81;4998105;28;20440;-76
2023/10/28 08:04:24;;;;;;;2.57;1.00;;;;;;;10.77;100.00;154126.13;5006479;28;20515;-75
2023/10/28 08:06:51;;;;;;;1.27;0.70;;;;;;;10.82;100.00;154139.06;5015589;28;20534;-75
2023/10/28 08:09:17;;;;;;;2.30;1.13;;;;;;;10.86;100.00;154148.09;4996390;28;20992;-75
2023/10/28 08:11:44;;;;;;;1.60;1.20;;;;;;;10.90;100.00;154159.78;4997021;28;20816;-75
2023/10/28 08:14:13;;;;;;;4.37;1.37;;;;;;;10.97;100.00;154176.59;5013718;28;20456;-75
2023/10/28 08:16:40;;;;;;;2.53;1.30;;;;;;;11.06;100.00;154199.94;5013910;28;20455;-76
2023/10/28 08:19:08;;;;;;;3.83;1.20;;;;;;;11.19;100.00;154232.31;5012991;28;20904;-75
2023/10/28 08:21:34;;;;;;;2.70;1.10;;;;;;;11.28;100.00;154255.66;5011277;28;20876;-75
2023/10/28 08:24:01;;;;;;;2.03;0.93;;;;;;;11.35;100.00;154273.78;4993330;28;20464;-75
2023/10/28 08:26:27;;;;;;;2.83;1.50;;;;;;;11.47;100.00;154304.84;5016311;28;20541;-75
2023/10/28 08:28:54;;;;;;;4.70;0.80;;;;;;;11.55;100.00;154325.59;5011918;28;20462;-76
2023/10/28 08:31:22;;;;;;;3.57;1.00;;;;;;;11.55;100.00;154326.88;4998515;28;21035;-75
2023/10/28 08:33:50;;;;;;;1.80;0.90;;;;;;;11.62;100.00;154343.75;4994757;28;20506;-75
2023/10/28 08:36:17;;;;;;;2.43;1.10;;;;;;;11.66;100.00;154354.09;5015781;28;20455;-75
2023/10/28 08:38:44;;;;;;;2.40;0.90;;;;;;;11.72;100.00;154369.72;5015509;28;20452;-76
2023/10/28 08:41:13;;;;;;;1.47;0.77;;;;;;;11.84;100.00;154399.50;5017186;28;21105;-75
2023/10/28 08:43:39;;;;;;;3.60;1.50;;;;;;;11.88;100.00;154411.19;5016094;28;20514;-75
2023/10/28 08:46:07;;;;;;;4.20;0.97;;;;;;;11.90;100.00;154415.06;5015658;28;20456;-75
2023/10/28 08:48:37;;;;;;;3.33;0.90;;;;;;;11.95;100.00;154428.00;4997011;28;20459;-74
2023/10/28 08:51:05;;;;;;;1.80;0.90;;;;;;;12.01;100.00;154443.59;4993934;28;20658;-75
2023/10/28 08:53:34;;;;;;;3.67;0.90;;;;;;;12.01;100.00;154444.91;4997215;28;20538;-74
2023/10/28 08:56:03;;;;;;;2.07;1.10;;;;;;;11.94;100.00;154426.72;5015913;28;20510;-75
2023/10/28 08:58:30;;;;;;;1.90;0.87;;;;;;;11.93;100.00;154424.16;5012783;28;20491;-75
2023/10/28 09:00:59;;;;;;;3.57;1.17;;;;;;;11.94;100.00;154426.72;4996231;28;20557;-75
2023/10/28 09:03:26;;;;;;;7.33;1.13;;;;;;;11.97;100.00;154434.50;5011586;28;20913;-75
2023/10/28 09:05:55;;;;;;;2.70;0.80;;;;;;;11.96;100.00;154431.94;4992884;28;21102;-75
2023/10/28 09:08:22;;;;;;;3.20;1.03;;;;;;;11.94;100.00;154426.72;5011699;28;20852;-75
2023/10/28 09:10:49;;;;;;;2.17;0.80;;;;;;;12.01;100.00;154444.91;5012475;28;20862;-75
2023/10/28 09:13:16;;;;;;;2.23;1.17;;;;;;;12.07;100.00;154460.41;4995155;28;20459;-75
2023/10/28 09:15:42;;;;;;;7.90;2.00;;;;;;;12.04;100.00;154452.69;5014520;28;20455;-75
2023/10/28 09:18:09;;;;;;;1.13;0.70;;;;;;;12.03;100.00;154448.75;5009901;28;20459;-75
2023/10/28 09:20:37;;;;;;;2.10;0.90;;;;;;;12.04;100.00;154452.69;5013974;28;20451;-75
2023/10/28 09:23:05;;;;;;;2.10;0.77;;;;;;;12.08;100.00;154463.03;5014114;28;21008;-76
2023/10/28 09:25:34;;;;;;;2.43;0.80;;;;;;;12.13;100.00;154475.97;5015015;28;20516;-76
2023/10/28 09:28:00;;;;;;;1.27;0.70;;;;;;;12.09;100.00;154464.31;5012093;28;20546;-75
2023/10/28 09:30:28;;;;;;;3.70;1.40;;;;;;;12.05;100.00;154453.94;5014639;28;20456;-75
2023/10/28 09:32:55;;;;;;;1.87;1.10;;;;;;;12.02;100.00;154447.44;5013470;28;20452;-75
2023/10/28 09:35:23;;;;;;;2.13;1.10;;;;;;;12.02;100.00;154446.19;5015368;28;20468;-76
2023/10/28 09:37:50;;;;;;;2.90;0.80;;;;;;;12.05;100.00;154455.25;5013570;28;20821;-76
2023/10/28 09:40:18;;;;;;;3.10;1.00;;;;;;;12.13;99.97;154474.66;5018746;28;20570;-76
2023/10/28 09:42:48;;;;;;;1.30;1.00;;;;;;;12.14;99.14;154478.59;5014565;28;20470;-76
2023/10/28 09:45:16;;;;;;;2.33;1.23;;;;;;;12.16;100.00;154483.78;5012273;28;22158;-76
2023/10/28 09:47:50;;;;;;;1.80;0.80;;;;;;;12.15;100.00;154481.16;5011675;28;20459;-76
2023/10/28 09:50:17;;;;;;;2.70;1.00;;;;;;;12.20;100.00;154492.84;5015796;28;20454;-76
2023/10/28 09:52:44;;;;;;;2.40;1.07;;;;;;;12.25;99.59;154505.81;5014211;28;20517;-76
2023/10/28 09:55:15;;;;;;;2.93;1.23;;;;;;;12.31;99.00;154520.09;4998413;28;20456;-76
2023/10/28 09:57:43;;;;;;;1.90;1.03;;;;;;;12.42;99.96;154548.56;5014466;28;20500;-76
2023/10/28 10:00:17;;;;;;;1.50;0.83;;;;;;;12.43;99.77;154552.50;5016306;28;20441;-76
2023/10/28 10:03:03;;;;;;;1.80;1.03;;;;;;;12.46;100.00;154558.97;5018963;28;20458;-76
2023/10/28 10:05:33;;;;;;;1.90;1.20;;;;;;;12.47;100.00;154561.59;5014597;28;20470;-76
2023/10/28 10:08:02;;;;;;;2.13;0.80;;;;;;;12.52;98.80;154574.53;5016521;28;20528;-76
2023/10/28 10:10:29;;;;;;;1.20;0.80;;;;;;;12.60;96.85;154595.28;5021412;28;20537;-76
2023/10/28 10:13:03;;;;;;;2.03;0.80;;;;;;;12.69;98.79;154618.63;4999725;28;21035;-76
2023/10/28 10:15:32;;;;;;;2.80;1.17;;;;;;;12.65;97.70;154609.56;5000068;28;20467;-76
2023/10/28 10:18:05;;;;;;;4.03;1.20;;;;;;;12.73;98.18;154630.28;5016213;28;20599;-77
2023/10/28 10:20:34;;;;;;;5.57;1.13;;;;;;;12.78;97.54;154643.28;4998795;28;20475;-75
2023/10/28 10:23:01;;;;;;;2.27;1.50;;;;;;;12.80;98.28;154647.16;5017859;28;20541;-75
2023/10/28 10:25:32;;;;;;;1.60;1.00;;;;;;;12.79;95.65;154644.53;5016424;28;20541;-75
2023/10/28 10:28:12;;;;;;;2.43;1.27;;;;;;;12.86;95.90;154662.72;5015547;28;20459;-76
2023/10/28 10:30:38;;;;;;;3.27;1.00;;;;;;;12.83;95.54;154656.25;4999001;28;20451;-75
2023/10/28 10:33:05;;;;;;;2.37;0.77;;;;;;;12.81;96.54;154651.03;5015952;28;20480;-76
2023/10/28 10:35:32;;;;;;;2.90;1.00;;;;;;;12.79;96.74;154645.84;5019500;28;20444;-75
2023/10/28 10:38:03;;;;;;;3.53;1.57;;;;;;;12.78;97.10;154643.28;4998669;28;20464;-75
2023/10/28 10:40:32;;;;;;;1.70;0.80;;;;;;;12.79;98.97;154645.84;5018451;28;20603;-75
2023/10/28 10:43:06;;;;;;;2.43;0.87;;;;;;;12.78;98.46;154643.28;5016329;28;20468;-75
2023/10/28 10:45:34;;;;;;;3.73;1.10;;;;;;;12.83;97.09;154654.94;5017569;28;20990;-75
2023/10/28 10:48:01;;;;;;;2.87;1.20;;;;;;;12.87;94.40;154664.03;5015566;28;20471;-75
2023/10/28 10:50:29;;;;;;;2.40;0.87;;;;;;;12.97;93.79;154689.97;4996069;28;20562;-75
2023/10/28 10:52:56;;;;;;;2.90;1.10;;;;;;;13.04;92.79;154709.44;5016271;28;20459;-75
2023/10/28 10:55:23;;;;;;;2.83;1.20;;;;;;;13.13;94.71;154732.78;5014937;28;20456;-75
2023/10/28 10:57:50;;;;;;;3.00;1.23;;;;;;;13.12;93.86;154730.22;5015095;28;20475;-75
2023/10/28 11:00:20;;;;;;;2.27;1.00;;;;;;;13.16;93.61;154740.59;4998102;28;20896;-75
2023/10/28 11:02:47;;;;;;;2.20;1.60;;;;;;;13.25;93.16;154763.97;5017395;28;20572;-75
2023/10/28 11:05:14;;;;;;;2.63;1.40;;;;;;;13.28;94.40;154771.75;4996615;28;20495;-75
2023/10/28 11:07:42;;;;;;;4.67;1.77;;;;;;;13.27;94.83;154767.84;5015186;28;20459;-75
2023/10/28 11:10:09;;;;;;;1.97;1.07;;;;;;;13.26;92.26;154765.28;5019468;28;20448;-75
2023/10/28 11:12:37;;;;;;;3.60;1.10;;;;;;;13.25;90.51;154763.97;5016768;28;20796;-76
2023/10/28 11:15:05;;;;;;;3.23;0.87;;;;;;;13.25;93.95;154762.66;5002157;28;20448;-75
2023/10/28 11:17:33;;;;;;;3.40;1.17;;;;;;;13.15;91.64;154736.72;5013260;28;20458;-75
2023/10/28 11:20:00;;;;;;;3.20;1.10;;;;;;;13.17;91.53;154743.22;5016154;28;20456;-75
2023/10/28 11:22:26;;;;;;;4.47;1.83;;;;;;;13.15;92.08;154736.72;5016011;28;20490;-75
2023/10/28 11:24:55;;;;;;;3.43;1.20;;;;;;;13.15;93.85;154738.03;5000012;28;20467;-75